createdAt,value
2019-04-30T00:00:20.877Z,19.97
2019-04-30T00:05:26.042Z,19.63
2019-04-30T00:10:36.981Z,20.13
2019-04-30T00:15:38.126Z,20.73
2019-04-30T00:20:46.978Z,18.23
2019-04-30T00:25:51.722Z,15.87
2019-04-30T00:30:57.110Z,17.57
2019-04-30T00:36:02.273Z,16.10
2019-04-30T00:41:10.145Z,17.17
2019-04-30T00:46:17.405Z,16.93
2019-04-30T00:51:21.704Z,18.17
2019-04-30T00:56:28.283Z,18.47
2019-04-30T01:01:58.893Z,17.70
2019-04-30T01:07:08.582Z,16.77
2019-04-30T01:12:17.482Z,17.03
2019-04-30T01:17:19.859Z,17.67
2019-04-30T01:22:29.232Z,17.07
2019-04-30T01:27:32.472Z,15.60
2019-04-30T01:32:39.423Z,15.00
2019-04-30T01:37:44.690Z,16.20
2019-04-30T01:42:51.616Z,17.43
2019-04-30T01:48:00.740Z,14.70
2019-04-30T01:53:04.702Z,13.50
2019-04-30T01:58:30.196Z,13.77
2019-04-30T02:03:35.713Z,12.53
2019-04-30T02:08:40.895Z,11.33
2019-04-30T02:13:45.975Z,10.50
2019-04-30T02:18:51.140Z,10.67
2019-04-30T02:23:56.297Z,10.20
2019-04-30T02:29:01.451Z,9.90
2019-04-30T02:34:22.425Z,9.17
2019-04-30T02:39:30.138Z,9.30
2019-04-30T02:44:36.497Z,9.23
2019-04-30T02:49:43.926Z,8.87
2019-04-30T02:54:50.825Z,8.73
2019-04-30T03:00:13.355Z,8.57
2019-04-30T03:05:20.262Z,7.37
2019-04-30T03:10:25.488Z,6.90
2019-04-30T03:15:30.601Z,8.03
2019-04-30T03:20:50.001Z,7.17
2019-04-30T03:25:55.160Z,6.63
2019-04-30T03:31:04.328Z,7.40
2019-04-30T03:36:11.978Z,7.23
2019-04-30T03:41:15.008Z,6.50
2019-04-30T03:46:20.175Z,6.97
2019-04-30T03:51:25.354Z,6.93
2019-04-30T03:56:31.334Z,7.30
2019-04-30T04:02:02.272Z,7.40
2019-04-30T04:07:25.553Z,6.30
2019-04-30T04:12:30.831Z,6.97
2019-04-30T04:17:36.117Z,6.37
2019-04-30T04:22:41.888Z,5.90
2019-04-30T04:27:50.582Z,6.53
2019-04-30T04:32:55.102Z,6.17
2019-04-30T04:38:00.568Z,6.37
2019-04-30T04:43:05.817Z,6.17
2019-04-30T04:48:10.996Z,7.00
2019-04-30T04:53:16.393Z,7.20
2019-04-30T04:58:21.939Z,6.97
2019-04-30T05:03:33.660Z,6.70
2019-04-30T05:08:39.621Z,7.67
2019-04-30T05:13:45.318Z,6.80
2019-04-30T05:18:50.827Z,7.07
2019-04-30T05:23:56.288Z,6.80
2019-04-30T05:29:01.470Z,7.17
2019-04-30T05:34:10.286Z,6.70
2019-04-30T05:39:15.572Z,7.17
2019-04-30T05:44:20.812Z,7.30
2019-04-30T05:49:26.400Z,6.73
2019-04-30T05:54:31.550Z,6.33
2019-04-30T05:59:38.703Z,5.87
2019-04-30T06:04:43.582Z,6.13
2019-04-30T06:10:06.933Z,6.27
2019-04-30T06:15:39.009Z,6.30
2019-04-30T06:20:44.376Z,6.17
2019-04-30T06:25:59.605Z,6.30
2019-04-30T06:30:59.468Z,5.80
2019-04-30T06:36:04.689Z,6.23
2019-04-30T06:41:10.564Z,5.40
2019-04-30T06:46:16.312Z,5.73
2019-04-30T06:51:21.728Z,5.87
2019-04-30T06:56:28.841Z,5.27
2019-04-30T07:01:33.695Z,6.00
2019-04-30T07:06:43.870Z,6.17
2019-04-30T07:11:50.452Z,5.70
2019-04-30T07:16:55.896Z,5.83
2019-04-30T07:22:01.436Z,5.70
2019-04-30T07:27:09.382Z,5.73
2019-04-30T07:32:14.644Z,5.60
2019-04-30T07:37:24.386Z,6.43
2019-04-30T07:42:29.462Z,6.20
2019-04-30T07:47:34.557Z,6.50
2019-04-30T07:52:58.119Z,5.60
2019-04-30T07:57:50.111Z,6.07
2019-04-30T08:03:01.534Z,5.60
2019-04-30T08:08:17.683Z,5.97
2019-04-30T08:13:15.639Z,5.80
2019-04-30T08:18:22.250Z,5.50
2019-04-30T08:23:34.927Z,6.30
2019-04-30T08:28:34.490Z,6.23
2019-04-30T08:33:40.299Z,5.30
2019-04-30T08:38:45.488Z,5.23
2019-04-30T08:43:50.771Z,5.80
2019-04-30T08:48:58.546Z,6.13
2019-04-30T08:54:03.643Z,5.07
2019-04-30T08:59:11.273Z,5.30
2019-04-30T09:04:16.091Z,5.80
2019-04-30T09:09:23.459Z,5.50
2019-04-30T09:14:29.718Z,5.50
2019-04-30T09:19:35.159Z,5.50
2019-04-30T09:24:40.336Z,5.17
2019-04-30T09:29:45.622Z,5.13
2019-04-30T09:34:51.149Z,5.77
2019-04-30T09:39:56.492Z,5.10
2019-04-30T09:45:01.998Z,4.67
2019-04-30T09:50:08.994Z,5.13
2019-04-30T09:55:14.697Z,5.22
2019-04-30T10:00:21.169Z,5.07
2019-04-30T10:05:26.814Z,4.83
2019-04-30T10:10:38.744Z,4.70
2019-04-30T10:16:06.275Z,4.10
2019-04-30T10:21:11.441Z,4.07
2019-04-30T10:26:17.652Z,4.03
2019-04-30T10:31:23.161Z,3.90
2019-04-30T10:36:29.599Z,4.20
2019-04-30T10:41:34.872Z,4.30
2019-04-30T10:46:41.189Z,4.58
2019-04-30T10:51:46.360Z,4.23
2019-04-30T10:56:51.601Z,3.80
2019-04-30T11:01:56.783Z,4.33
2019-04-30T11:07:02.043Z,4.22
2019-04-30T11:12:09.353Z,4.78
2019-04-30T11:17:14.670Z,4.50
2019-04-30T11:22:20.331Z,4.58
2019-04-30T11:27:26.417Z,4.80
2019-04-30T11:32:32.150Z,5.30
2019-04-30T11:37:37.452Z,5.15
2019-04-30T11:42:42.696Z,5.28
2019-04-30T11:47:53.487Z,5.75
2019-04-30T11:53:07.147Z,6.20
2019-04-30T11:58:03.900Z,5.22
2019-04-30T12:03:09.471Z,5.62
2019-04-30T12:08:19.710Z,5.97
2019-04-30T12:13:32.386Z,5.65
2019-04-30T12:18:37.645Z,5.60
2019-04-30T12:23:42.912Z,6.20
2019-04-30T12:28:48.162Z,6.25
2019-04-30T12:33:53.981Z,6.53
2019-04-30T12:38:59.238Z,7.12
2019-04-30T12:44:04.960Z,7.25
2019-04-30T12:49:12.236Z,7.50
2019-04-30T12:54:45.494Z,7.15
2019-04-30T12:59:50.573Z,7.30
2019-04-30T13:04:56.030Z,6.85
2019-04-30T13:10:02.712Z,7.12
2019-04-30T13:15:10.467Z,8.05
2019-04-30T13:20:21.004Z,7.62
2019-04-30T13:25:32.522Z,7.45
2019-04-30T13:30:31.255Z,7.47
2019-04-30T13:35:36.594Z,7.35
2019-04-30T13:40:51.476Z,6.85
2019-04-30T13:45:58.588Z,6.83
2019-04-30T13:51:04.252Z,7.65
2019-04-30T13:56:09.530Z,7.35
2019-04-30T14:01:14.806Z,7.78
2019-04-30T14:06:22.764Z,8.15
2019-04-30T14:11:28.011Z,8.28
2019-04-30T14:16:33.298Z,8.78
2019-04-30T14:21:39.199Z,7.33
2019-04-30T14:26:44.962Z,8.20
2019-04-30T14:31:50.680Z,8.35
2019-04-30T14:36:59.187Z,8.03
2019-04-30T14:42:04.591Z,8.05
2019-04-30T14:47:31.476Z,8.25
2019-04-30T14:52:45.141Z,7.87
2019-04-30T14:58:10.068Z,8.40
2019-04-30T15:03:16.670Z,8.88
2019-04-30T15:08:21.976Z,7.97
2019-04-30T15:13:29.499Z,9.03
2019-04-30T15:18:34.857Z,8.75
2019-04-30T15:23:58.690Z,9.25
2019-04-30T15:29:00.096Z,8.23
2019-04-30T15:34:11.153Z,8.30
2019-04-30T15:39:42.593Z,8.08
2019-04-30T15:44:49.696Z,7.45
2019-04-30T15:49:56.151Z,8.53
2019-04-30T15:55:01.416Z,8.10
2019-04-30T16:00:08.730Z,7.80
2019-04-30T16:05:33.013Z,8.13
2019-04-30T16:11:09.630Z,7.62
2019-04-30T16:16:13.635Z,7.62
2019-04-30T16:21:19.476Z,7.60
2019-04-30T16:26:24.704Z,7.87
2019-04-30T16:31:29.963Z,7.20
2019-04-30T16:36:35.581Z,6.95
2019-04-30T16:41:41.552Z,7.20
2019-04-30T16:46:46.809Z,6.72
2019-04-30T16:51:52.538Z,6.85
2019-04-30T16:57:04.058Z,7.00
2019-04-30T17:02:06.271Z,6.83
2019-04-30T17:07:30.975Z,6.72
2019-04-30T17:12:51.226Z,6.12
2019-04-30T17:17:55.424Z,6.35
2019-04-30T17:23:00.829Z,7.17
2019-04-30T17:28:08.774Z,6.58
2019-04-30T17:33:14.123Z,6.70
2019-04-30T17:38:19.397Z,6.80
2019-04-30T17:43:24.658Z,6.55
2019-04-30T17:48:30.983Z,6.10
2019-04-30T17:53:38.917Z,6.40
2019-04-30T17:58:44.699Z,6.55
2019-04-30T18:03:49.946Z,6.08
2019-04-30T18:08:55.309Z,6.03
2019-04-30T18:14:00.674Z,6.15
2019-04-30T18:19:18.793Z,5.53
2019-04-30T18:24:43.149Z,6.55
2019-04-30T18:29:48.494Z,6.55
2019-04-30T18:34:59.031Z,5.72
2019-04-30T18:40:04.315Z,6.47
2019-04-30T18:45:11.455Z,6.62
2019-04-30T18:50:16.988Z,6.30
2019-04-30T18:55:22.245Z,7.00
2019-04-30T19:00:39.559Z,9.13
2019-04-30T19:05:49.203Z,6.90
2019-04-30T19:11:18.680Z,6.92
2019-04-30T19:16:47.005Z,10.80
2019-04-30T19:21:52.512Z,10.23
2019-04-30T19:26:58.715Z,9.03
2019-04-30T19:32:04.558Z,8.45
2019-04-30T19:37:10.927Z,8.03
2019-04-30T19:42:18.663Z,6.90
2019-04-30T19:47:23.735Z,8.48
2019-04-30T19:52:29.887Z,7.78
2019-04-30T19:57:35.204Z,7.42
2019-04-30T20:02:40.785Z,7.80
2019-04-30T20:07:46.098Z,8.20
2019-04-30T20:12:51.726Z,8.95
2019-04-30T20:17:58.326Z,8.10
2019-04-30T20:23:05.458Z,7.83
2019-04-30T20:28:12.308Z,8.20
2019-04-30T20:33:19.064Z,7.83
2019-04-30T20:38:55.601Z,7.93
2019-04-30T20:44:01.106Z,8.37
2019-04-30T20:49:06.405Z,10.63
2019-04-30T20:54:11.667Z,12.10
2019-04-30T20:59:18.890Z,32.98
2019-04-30T21:04:24.872Z,74.65
2019-04-30T21:09:30.208Z,46.58
2019-04-30T21:14:35.816Z,41.37
2019-04-30T21:19:41.001Z,43.23
2019-04-30T21:24:46.548Z,56.60
2019-04-30T21:29:52.105Z,21.37
2019-04-30T21:35:19.111Z,23.40
2019-04-30T21:40:24.290Z,36.80
2019-04-30T21:45:31.546Z,30.43
2019-04-30T21:50:39.615Z,24.70
2019-04-30T21:55:44.658Z,20.83
2019-04-30T22:01:17.772Z,23.43
2019-04-30T22:06:23.233Z,24.13
2019-04-30T22:11:29.602Z,22.80
2019-04-30T22:16:35.186Z,21.23
2019-04-30T22:21:40.531Z,18.67
2019-04-30T22:26:45.701Z,19.53
2019-04-30T22:31:50.874Z,22.63
2019-04-30T22:36:56.301Z,23.37
2019-04-30T22:42:11.436Z,25.90
2019-04-30T22:47:17.435Z,22.83
2019-04-30T22:52:22.996Z,24.73
2019-04-30T22:57:29.752Z,25.53
2019-04-30T23:02:48.259Z,23.80
2019-04-30T23:07:54.359Z,19.90
2019-04-30T23:12:59.556Z,19.67
2019-04-30T23:18:05.285Z,19.80
2019-04-30T23:23:10.455Z,18.67
2019-04-30T23:28:17.040Z,19.07
2019-04-30T23:33:22.350Z,20.03
2019-04-30T23:38:27.535Z,20.50
2019-04-30T23:43:32.726Z,21.20
2019-04-30T23:48:38.951Z,23.67
2019-04-30T23:53:44.150Z,23.30
2019-04-30T23:58:49.562Z,25.43
